Latest Coastal Weather Observations for Hobart Airport

IDT60701

Issued at 4:22 pm EST Friday 22 September 2017 (issued every 10 minutes, with the page automatically refreshed every 10 minutes)

About coastal observations | Map of coastal stations | Coastal observations for TAS | Marine services | Other Formats
Station Details ID: 094008 Name: HOBART AIRPORT Lat: -42.83 Lon: 147.50 Height: 4.0 m
Data from the previous 72 hours. | See also: Recent months at Hobart Airport
Date/Time
EST
Temp
°C
Wind Pressure Rain since
9am
mm
Weather Cloud Vis
km
Sea
Height
m
Swell
Dir  Spd
kts
Gust
kts
hPa Trend Height
m
Period
s
Dir
22/04:00pm 16.7 E 8 11 1004.9 - 0.0 - Mostly clear 10 - - - -
22/03:30pm 16.7 E 7 10 1004.9 - 0.0 - Mostly clear 10 - - - -
22/03:00pm 16.9 ESE 8 12 1005.1 F 0.0 Fine Mostly cloudy 40 - - - -
22/02:30pm 18.6 N 3 6 1005.4 - 0.0 - Mostly clear 10 - - - -
22/02:00pm 17.8 NNW 6 9 1005.7 - 0.0 - Mostly clear 10 - - - -
22/01:30pm 17.9 NW 6 9 1005.9 - 0.0 - Mostly clear 10 - - - -
22/01:00pm 17.1 NNW 7 11 1006.3 - 0.0 - Mostly clear 10 - - - -
22/12:30pm 17.1 NW 8 14 1007.0 - 0.0 - Partly cloudy 10 - - - -
22/12:00pm 16.3 NNW 7 11 1007.4 F 0.0 Fine Partly cloudy 40 - - - -
22/11:30am 16.9 NNW 8 11 1007.6 - 0.0 - Partly cloudy 10 - - - -
22/11:00am 16.1 NW 12 15 1007.8 - 0.0 - Partly cloudy 10 - - - -
22/10:30am 15.4 NW 13 19 1007.9 - 0.0 - Mostly clear 10 - - - -
22/10:00am 14.7 NW 11 16 1008.0 - 0.0 - Mostly clear 10 - - - -
22/09:30am 14.2 NNW 9 14 1008.3 - 0.0 - Mostly clear 10 - - - -
22/09:00am 13.0 N 8 11 1008.6 R 0.0 Fine Mostly cloudy 40 - - - -
22/08:30am 12.0 N 7 9 1008.3 - 0.0 - Mostly clear 10 - - - -
22/08:00am 10.7 NNW 5 7 1008.1 - 0.0 - Mostly clear 10 - - - -
22/07:30am 9.6 NNW 5 6 1007.7 - 0.0 - Mostly clear 10 - - - -
22/07:00am 10.2 N 5 6 1007.7 - 0.0 - Mostly clear 10 - - - -
22/06:30am 7.2 NW 1 5 1007.6 - 0.0 - Mostly clear 10 - - - -
22/06:00am 7.6 WSW 5 6 1007.7 R 0.0 Distant precip. Partly cloudy 40 - - - -
22/05:30am 7.2 NW 5 6 1006.9 - 0.0 - Partly cloudy 10 - - - -
22/05:00am 8.1 NW 5 7 1006.7 - 0.0 - Mostly clear 10 - - - -
22/04:30am 8.1 NW 5 6 1006.5 - 0.0 - Mostly clear 10 - - - -
22/04:00am 8.9 WNW 8 10 1006.3 - 0.0 - Mostly clear 10 - - - -
22/03:30am 9.5 WNW 9 10 1006.3 - 0.0 - Mostly clear 10 - - - -
22/03:00am 9.6 NW 8 11 1006.4 R 0.0 Fine Mostly clear 40 - - - -
22/02:30am 10.2 NW 8 10 1006.4 - 0.0 - Mostly clear 10 - - - -
22/02:00am 10.4 WNW 9 10 1006.5 - 0.0 - Mostly clear 10 - - - -
22/01:30am 11.5 WNW 11 14 1006.6 - 0.0 - Mostly clear 10 - - - -
22/01:00am 11.4 WNW 9 12 1006.9 - 0.0 - Mostly clear 10 - - - -
22/12:30am 11.5 WNW 8 10 1006.9 - 0.0 - Partly cloudy 10 - - - -
22/12:00am 11.3 WNW 9 10 1006.6 R 0.0 Fine Mostly cloudy 40 - - - -
 
Date/Time
EST
Temp
°C
Wind Pressure Rain since
9am
mm
Weather Cloud Vis
km
Sea
Height
m
Swell
Dir  Spd
kts
Gust
kts
hPa Trend Height
m
Period
s
Dir
21/11:30pm 11.3 NNW 5 7 1006.5 - 0.0 - Mostly cloudy 10 - - - -
21/11:00pm 10.6 NNW 6 7 1006.7 - 0.0 - Mostly clear 10 - - - -
21/10:30pm 12.4 WNW 7 10 1006.6 - 0.0 - Mostly clear 10 - - - -
21/10:00pm 13.3 W 12 17 1006.1 - 0.0 - Mostly clear 10 - - - -
21/09:30pm 13.5 W 12 17 1005.8 - 0.0 - Mostly clear 10 - - - -
21/09:00pm 13.3 W 8 10 1005.4 R 0.0 Fine Mostly cloudy 40 - - - -
21/08:30pm 14.5 W 15 19 1004.7 - 0.0 - Mostly clear 10 - - - -
21/08:00pm 14.7 W 9 11 1004.2 - 0.0 - Mostly clear 10 - - - -
21/07:30pm 15.5 W 9 12 1003.5 - 0.0 - Partly cloudy 10 - - - -
21/07:00pm 16.8 WNW 10 15 1002.7 - 0.0 - - 10 - - - -
21/06:30pm 17.3 NW 15 20 1001.8 - 0.0 - Partly cloudy 10 - - - -
21/06:00pm 17.6 NW 17 25 1001.3 R 0.0 Haze Mostly cloudy 25 - - - -
21/05:30pm 18.4 NW 18 24 1000.9 - 0.0 - Partly cloudy 10 - - - -
21/05:00pm 19.1 NW 16 23 1000.6 - 0.0 - Partly cloudy 10 - - - -
21/04:33pm 19.5 NW 18 28 1000.5 - 0.0 - Partly cloudy 10 - - - -
21/04:30pm 19.6 NW 19 28 1000.5 - 0.0 - Partly cloudy 10 - - - -
21/04:15pm 20.5 NW 17 26 1000.3 - 0.0 - Partly cloudy 10 - - - -
21/04:00pm 20.5 NNW 12 16 1000.1 - 0.0 - Partly cloudy 10 - - - -
21/03:30pm 21.0 NNW 15 25 999.9 - 0.0 - Partly cloudy 10 - - - -
21/03:27pm 21.2 NNW 15 25 999.8 - 0.0 - Partly cloudy 10 - - - -
21/03:00pm 20.7 N 16 22 999.6 F 0.0 Haze Mostly cloudy 25 - - - -
21/02:47pm 20.0 NNW 16 26 999.6 - 0.0 - Partly cloudy 10 - - - -
21/02:30pm 20.0 NNW 17 25 999.6 - 0.0 - - 10 - - - -
21/02:13pm 20.4 N 16 29 999.6 - 0.0 - Partly cloudy 10 - - - -
21/02:00pm 21.1 N 15 22 999.9 - 0.0 - Partly cloudy 10 - - - -
21/01:30pm 21.0 NNE 14 21 1000.3 - 0.0 - Partly cloudy 10 - - - -
21/01:00pm 20.2 NNE 15 25 1000.7 - 0.0 - Mostly clear 10 - - - -
21/12:30pm 19.8 NNE 15 21 1001.6 - 0.0 - Mostly clear 10 - - - -
21/12:00pm 18.8 N 14 22 1002.9 F 0.0 Fine Partly cloudy 40 - - - -
21/11:30am 17.4 N 15 21 1004.3 - 0.0 - Mostly clear 10 - - - -
21/11:00am 15.5 NNE 13 20 1005.2 - 0.0 - Mostly clear 10 - - - -
21/10:30am 14.7 N 15 19 1005.9 - 0.0 - Mostly clear 10 - - - -
21/10:00am 14.4 N 14 20 1006.4 - 0.0 - Mostly clear 10 - - - -
21/09:30am 13.8 N 13 20 1007.0 - 0.0 - Mostly clear 10 - - - -
21/09:00am 13.5 N 11 18 1007.2 F 0.0 Fine Cloudy 40 - - - -
21/08:30am 12.8 N 7 14 1007.4 - 0.0 - Mostly clear 10 - - - -
21/08:00am 12.0 N 8 12 1007.9 - 0.0 - Mostly clear 10 - - - -
21/07:30am 12.0 N 9 14 1008.0 - 0.0 - Mostly clear 10 - - - -
21/07:00am 11.3 N 8 12 1008.8 - 0.0 - Mostly clear 10 - - - -
21/06:30am 11.3 N 7 8 1008.7 - 0.0 - Mostly clear 10 - - - -
21/06:00am 11.1 N 6 7 1008.6 F 0.0 Fine Cloudy 40 - - - -
21/05:30am 11.3 N 7 9 1008.6 - 0.0 - - 10 - - - -
21/05:00am 10.7 NW 5 7 1008.6 - 0.0 - - 10 - - - -
21/04:30am 11.0 NNE 4 5 1008.4 - 0.0 - - 10 - - - -
21/04:00am 11.1 N 4 6 1009.0 - 0.0 - - 10 - - - -
21/03:30am 11.3 NW 6 8 1009.2 - 0.0 - Cloudy 10 - - - -
21/03:00am 11.3 NW 7 8 1009.7 F 0.0 Fine Mostly cloudy 40 - - - -
21/02:30am 11.4 NNW 8 11 1009.6 - 0.0 - Cloudy 10 - - - -
21/02:00am 11.5 NW 7 9 1010.1 - 0.0 - Cloudy 10 - - - -
21/01:30am 11.4 NNW 5 8 1010.2 - 0.0 - Cloudy 10 - - - -
21/01:00am 11.3 N 7 11 1011.1 - 0.0 - Cloudy 10 - - - -
21/12:30am 11.6 N 10 15 1011.5 - 0.0 - Partly cloudy 10 - - - -
21/12:00am 11.7 N 6 9 1012.0 F 0.0 Fine Mostly cloudy 40 - - - -
 
Date/Time
EST
Temp
°C
Wind Pressure Rain since
9am
mm
Weather Cloud Vis
km
Sea
Height
m
Swell
Dir  Spd
kts
Gust
kts
hPa Trend Height
m
Period
s
Dir
20/11:30pm 11.7 NNW 9 15 1011.6 - 0.0 - Partly cloudy 10 - - - -
20/11:00pm 12.0 NNW 6 9 1011.9 - 0.0 - Partly cloudy 10 - - - -
20/10:30pm 11.9 N 7 10 1012.0 - 0.0 - - 10 - - - -
20/10:00pm 12.0 NNW 5 8 1011.8 - 0.0 - Cloudy 10 - - - -
20/09:30pm 11.0 NNE 5 8 1011.8 - 0.0 - Cloudy 10 - - - -
20/09:00pm 10.8 WNW 7 9 1012.4 F 0.0 Fine Mostly cloudy 40 - - - -
20/08:30pm 11.2 SE 5 7 1011.5 - 0.0 - Partly cloudy 10 - - - -
20/08:00pm 11.0 S 4 5 1012.4 - 0.0 - Partly cloudy 10 - - - -
20/07:30pm 11.4 S 6 7 1012.7 - 0.0 - Partly cloudy 10 - - - -
20/07:00pm 11.3 SSE 5 7 1012.6 - 0.0 - Partly cloudy 10 - - - -
20/06:30pm 11.6 SSW 7 8 1012.5 - 0.0 - Partly cloudy 10 - - - -
20/06:00pm 11.9 SSW 6 7 1011.6 F 0.0 Haze Mostly cloudy 22 - - - -
20/05:30pm 12.2 SSE 5 7 1011.3 - 0.0 - Partly cloudy 10 - - - -
20/05:00pm 13.2 SSE 5 6 1011.8 - 0.0 - Partly cloudy 10 - - - -
20/04:30pm 14.4 ENE 7 9 1011.6 - 0.0 - Mostly clear 10 - - - -
20/04:00pm 14.3 ENE 9 12 1011.5 - 0.0 - Mostly clear 10 - - - -
20/03:30pm 15.8 WNW 5 7 1011.2 - 0.0 - Mostly clear 10 - - - -
20/03:00pm 15.9 WNW 7 9 1011.9 F 0.0 Fine Mostly cloudy 40 - - - -
20/02:30pm 16.0 NNW 8 11 1012.2 - 0.0 - Mostly clear 10 - - - -
20/02:00pm 15.5 NW 9 14 1012.8 - 0.0 - Mostly clear 10 - - - -
20/01:30pm 15.0 NW 12 15 1013.4 - 0.0 - Mostly clear 10 - - - -
20/01:00pm 14.2 NNW 7 12 1013.7 - 0.0 - Mostly clear 10 - - - -
20/12:30pm 13.4 NW 9 13 1014.5 - 0.0 - Mostly clear 10 - - - -
20/12:00pm 13.5 NW 11 16 1015.1 F 0.0 Fine Mostly cloudy 40 - - - -
20/11:30am 13.2 NW 9 13 1015.2 - 0.0 - Mostly clear 10 - - - -
20/11:00am 12.8 NW 8 15 1015.6 - 0.0 - Mostly clear 10 - - - -
20/10:30am 11.5 NW 11 14 1016.2 - 0.0 - Mostly clear 10 - - - -
20/10:00am 11.4 NW 9 16 1016.9 - 0.0 - Mostly clear 10 - - - -
20/09:30am 10.1 NNW 9 11 1017.3 - 0.0 - Mostly clear 10 - - - -
20/09:00am 9.3 NNW 6 9 1017.5 F 0.0 Fine Mostly cloudy 40 - - - -
20/08:30am 7.2 NW 6 7 1017.7 - 0.0 - Mostly clear 10 - - - -
20/08:00am 6.4 WNW 5 7 1017.7 - 0.0 - Mostly clear 10 - - - -
20/07:30am 5.6 WNW 7 8 1017.7 - 0.0 - Mostly clear 10 - - - -
20/07:00am 4.3 WNW 9 10 1017.7 - 0.0 - Mostly clear 10 - - - -
20/06:30am 4.1 NNW 6 10 1017.5 - 0.0 - Mostly clear 10 - - - -
20/06:00am 3.8 NW 7 9 1017.3 F 0.0 Fine Mostly cloudy 35 - - - -
20/05:30am 3.5 NW 9 10 1017.2 - 0.0 - Mostly clear 10 - - - -
20/05:00am 3.4 NW 8 9 1017.2 - 0.0 - Mostly clear 10 - - - -
20/04:30am 3.5 WNW 6 7 1016.9 - 0.0 - Partly cloudy 10 - - - -
20/04:00am 3.5 W 6 6 1016.7 - 0.0 - Partly cloudy 10 - - - -
20/03:30am 3.8 WNW 7 8 1017.0 - 0.0 - Partly cloudy 10 - - - -
20/03:00am 4.7 NW 7 8 1017.3 R 0.0 Fine Partly cloudy 35 - - - -
20/02:30am 5.1 NNW 6 8 1017.3 - 0.0 - Mostly cloudy 10 - - - -
20/02:00am 5.8 NW 7 8 1017.3 - 0.0 - Mostly cloudy 10 - - - -
20/01:30am 5.6 W 5 6 1017.4 - 0.0 - Mostly clear 10 - - - -
20/01:00am 6.0 NW 5 6 1017.9 - 0.0 - Partly cloudy 10 - - - -
20/12:30am 4.5 NW 5 6 1017.9 - 0.0 - Mostly clear 10 - - - -
20/12:00am 5.4 W 6 7 1017.8 R 0.0 Fine Partly cloudy 35 - - - -
 
Date/Time
EST
Temp
°C
Wind Pressure Rain since
9am
mm
Weather Cloud Vis
km
Sea
Height
m
Swell
Dir  Spd
kts
Gust
kts
hPa Trend Height
m
Period
s
Dir
19/11:30pm 5.4 WSW 6 7 1017.8 - 0.0 - Mostly clear 10 - - - -
19/11:00pm 6.9 WNW 5 6 1017.7 - 0.0 - Mostly clear 10 - - - -
19/10:30pm 6.7 W 5 6 1017.7 - 0.0 - Mostly clear 10 - - - -
19/10:00pm 6.5 WNW 6 8 1017.5 - 0.0 - Mostly clear 10 - - - -
19/09:30pm 8.1 WSW 11 17 1017.1 - 0.0 - Mostly clear 10 - - - -
19/09:00pm 7.4 W 8 12 1017.0 R 0.0 Fine Mostly cloudy 35 - - - -
19/08:30pm 7.3 WSW 9 13 1017.0 - 0.0 - Mostly clear 10 - - - -
19/08:00pm 8.1 SW 12 18 1016.6 - 0.0 - Mostly clear 10 - - - -
19/07:30pm 8.0 SW 9 14 1016.2 - 0.0 - Mostly clear 10 - - - -
19/07:00pm 8.5 SW 10 18 1015.8 - 0.0 - Mostly clear 10 - - - -
19/06:30pm 8.4 SW 12 16 1015.0 - 0.0 - Mostly clear 10 - - - -
19/06:00pm 8.5 WSW 15 21 1014.9 R 0.0 Recent precip. Partly cloudy 30 - - - -
19/05:30pm 8.9 SW 10 20 1014.4 - 0.0 - Mostly clear 10 - - - -
19/05:00pm 9.5 WSW 15 21 1013.7 - 0.0 - Mostly clear 10 - - - -
19/04:30pm 10.2 WSW 13 17 1013.3 - 0.0 - Mostly clear 10 - - - -

Other Formats:

Comma delimited format used in spreadsheet applications
http://www.bom.gov.au/fwo/IDT60701/IDT60701.94975.axf

JavaScript Object Notation format (JSON) in row-major order
http://www.bom.gov.au/fwo/IDT60701/IDT60701.94975.json